createdAt,value
2023-05-04T05:03:09.531Z,19.13
2023-05-04T05:04:09.480Z,19.34
2023-05-04T05:05:10.509Z,19.41
2023-05-04T05:06:09.491Z,19.43
2023-05-04T05:07:10.538Z,19.46
2023-05-04T05:08:09.533Z,19.47
2023-05-04T05:09:10.590Z,19.48
2023-05-04T05:10:10.635Z,19.49
2023-05-04T05:11:09.671Z,19.49
2023-05-04T05:12:09.714Z,19.50
2023-05-04T05:13:10.752Z,19.50
2023-05-04T05:14:10.725Z,19.50
2023-05-04T05:15:09.741Z,19.50
2023-05-04T05:16:10.787Z,19.50
2023-05-04T05:17:10.785Z,19.51
2023-05-04T05:18:10.851Z,19.52
2023-05-04T05:19:10.848Z,19.51
2023-05-04T05:20:10.890Z,19.51
2023-05-04T05:21:09.841Z,19.51
2023-05-04T05:22:10.871Z,19.50
2023-05-04T05:23:10.890Z,19.51
2023-05-04T05:24:09.914Z,19.51
2023-05-04T05:25:10.938Z,19.51
2023-05-04T05:26:09.928Z,19.51
2023-05-04T05:27:10.974Z,19.51
2023-05-04T05:28:10.960Z,19.51
2023-05-04T05:29:09.969Z,19.51
2023-05-04T05:30:11.011Z,19.51
2023-05-04T05:31:10.013Z,19.51
2023-05-04T05:32:10.013Z,19.51
2023-05-04T05:33:10.074Z,19.51
2023-05-04T05:34:10.033Z,19.51
2023-05-04T05:35:10.086Z,19.51
2023-05-04T05:36:11.100Z,19.51
2023-05-04T05:37:11.095Z,19.51
2023-05-04T05:38:11.099Z,19.51
2023-05-04T05:39:11.131Z,19.51
2023-05-04T05:40:10.154Z,19.51
2023-05-04T05:41:11.171Z,19.51
2023-05-04T05:42:11.184Z,19.50
2023-05-04T05:43:10.179Z,19.50
2023-05-04T05:44:12.908Z,19.51
2023-05-04T05:45:11.190Z,19.51
2023-05-04T05:46:10.204Z,19.51
2023-05-04T05:47:11.188Z,19.51
2023-05-04T05:48:10.228Z,19.50
2023-05-04T05:49:11.173Z,19.51
2023-05-04T05:50:11.145Z,19.51
2023-05-04T05:51:11.292Z,19.50
2023-05-04T05:52:11.134Z,19.51
2023-05-04T05:53:11.164Z,19.50
2023-05-04T05:54:11.156Z,19.50
2023-05-04T05:55:10.128Z,19.50
2023-05-04T05:56:11.136Z,19.50
2023-05-04T05:57:11.115Z,19.50
2023-05-04T05:58:11.099Z,19.50
2023-05-04T05:59:11.108Z,19.51
2023-05-04T06:00:11.096Z,19.50
2023-05-04T06:01:11.103Z,19.50
2023-05-04T06:02:10.155Z,19.49
2023-05-04T06:03:10.219Z,19.50
2023-05-04T06:04:11.167Z,19.51
2023-05-04T06:05:11.077Z,19.51
2023-05-04T06:06:11.059Z,19.50
2023-05-04T06:07:11.074Z,19.50
2023-05-04T06:08:10.045Z,19.49
2023-05-04T06:09:11.032Z,19.49
2023-05-04T06:10:11.035Z,19.50
2023-05-04T06:11:10.035Z,19.50
2023-05-04T06:12:09.995Z,19.50
2023-05-04T06:13:10.044Z,19.50
2023-05-04T06:14:09.986Z,19.50
2023-05-04T06:15:10.991Z,19.50
2023-05-04T06:16:10.044Z,19.50
2023-05-04T06:17:10.083Z,19.50
2023-05-04T06:18:10.960Z,19.50
2023-05-04T06:19:10.961Z,19.48
2023-05-04T06:20:09.976Z,19.45
2023-05-04T06:21:11.024Z,19.46
2023-05-04T06:22:09.978Z,19.45
2023-05-04T06:23:09.988Z,19.47
2023-05-04T06:24:09.932Z,19.49
2023-05-04T06:25:09.939Z,19.50
2023-05-04T06:26:09.966Z,19.51
2023-05-04T06:27:10.918Z,19.51
2023-05-04T06:28:10.901Z,19.51
2023-05-04T06:29:09.899Z,19.52
2023-05-04T06:30:10.888Z,19.52
2023-05-04T06:31:10.983Z,19.51
2023-05-04T06:32:09.986Z,19.51
2023-05-04T06:33:10.896Z,19.51
2023-05-04T06:34:09.884Z,19.50
2023-05-04T06:35:10.848Z,19.50
2023-05-04T06:36:09.841Z,19.50
2023-05-04T06:37:11.345Z,19.49
2023-05-04T06:38:10.895Z,19.45
2023-05-04T06:39:09.972Z,19.47
2023-05-04T06:40:10.204Z,19.49
2023-05-04T06:41:10.058Z,19.51
2023-05-04T06:42:11.059Z,19.54
2023-05-04T06:43:10.110Z,19.56
2023-05-04T06:44:10.157Z,19.57
2023-05-04T06:45:11.200Z,19.57
2023-05-04T06:46:11.292Z,19.58
2023-05-04T06:47:11.242Z,19.58
2023-05-04T06:48:11.283Z,19.59
2023-05-04T06:49:11.268Z,19.59
2023-05-04T06:50:11.253Z,19.57
2023-05-04T06:51:11.259Z,19.57
2023-05-04T06:52:11.274Z,19.57
2023-05-04T06:53:11.279Z,19.56
2023-05-04T06:54:11.283Z,19.57
2023-05-04T06:55:11.260Z,19.56
2023-05-04T06:56:10.683Z,19.55
2023-05-04T06:57:10.257Z,19.55
2023-05-04T06:58:11.278Z,19.55
2023-05-04T06:59:11.265Z,19.55
2023-05-04T07:00:11.264Z,19.54
2023-05-04T07:01:11.328Z,19.54
2023-05-04T07:02:11.310Z,19.53
2023-05-04T07:03:11.316Z,19.53
2023-05-04T07:04:11.301Z,19.52
2023-05-04T07:05:10.284Z,19.53
2023-05-04T07:06:10.291Z,19.52
2023-05-04T07:07:10.282Z,19.52
2023-05-04T07:08:11.311Z,19.53
2023-05-04T07:09:11.301Z,19.53
2023-05-04T07:10:10.351Z,19.52
2023-05-04T07:11:10.321Z,19.52
2023-05-04T07:12:11.304Z,19.52
2023-05-04T07:13:11.332Z,19.52
2023-05-04T07:14:11.348Z,19.52
2023-05-04T07:15:10.342Z,19.52
2023-05-04T07:16:10.382Z,19.52
2023-05-04T07:17:10.406Z,19.51
2023-05-04T07:18:11.443Z,19.52
2023-05-04T07:19:10.425Z,19.52
2023-05-04T07:20:11.425Z,19.52
2023-05-04T07:21:26.199Z,19.52
2023-05-04T07:22:11.375Z,19.50
2023-05-04T07:23:10.357Z,19.52
2023-05-04T07:24:11.362Z,19.53
2023-05-04T07:25:11.357Z,19.55
2023-05-04T07:26:11.438Z,19.57
2023-05-04T07:27:10.334Z,19.57
2023-05-04T07:28:10.323Z,19.57
2023-05-04T07:29:11.312Z,19.57
2023-05-04T07:30:11.316Z,19.57
2023-05-04T07:31:11.319Z,19.56
2023-05-04T07:32:11.368Z,19.55
2023-05-04T07:33:11.400Z,19.56
2023-05-04T07:34:11.282Z,19.55
2023-05-04T07:35:11.279Z,19.55
2023-05-04T07:36:11.292Z,19.54
2023-05-04T07:37:11.270Z,19.54
2023-05-04T07:38:11.271Z,19.54
2023-05-04T07:39:11.273Z,19.54
2023-05-04T07:40:10.294Z,19.53
2023-05-04T07:41:11.263Z,19.53
2023-05-04T07:42:10.336Z,19.53
2023-05-04T07:43:10.240Z,19.53
2023-05-04T07:44:11.233Z,19.53
2023-05-04T07:45:11.226Z,19.54
2023-05-04T07:46:11.213Z,19.53
2023-05-04T07:47:11.198Z,19.54
2023-05-04T07:48:10.217Z,19.52
2023-05-04T07:49:10.204Z,19.50
2023-05-04T07:50:11.270Z,19.52
2023-05-04T07:51:10.182Z,19.56
2023-05-04T07:52:10.186Z,19.58
2023-05-04T07:53:11.160Z,19.60
2023-05-04T07:54:11.152Z,19.61
2023-05-04T07:55:10.155Z,19.62
2023-05-04T07:56:11.176Z,19.64
2023-05-04T07:57:11.132Z,19.65
2023-05-04T07:58:10.215Z,19.66
2023-05-04T07:59:10.126Z,19.68
2023-05-04T08:00:11.128Z,19.69
2023-05-04T08:01:10.112Z,19.69
2023-05-04T08:02:10.205Z,19.70
2023-05-04T08:03:10.114Z,19.71
2023-05-04T08:04:11.084Z,19.72
2023-05-04T08:05:11.095Z,19.73
2023-05-04T08:06:11.093Z,19.73
2023-05-04T08:07:10.122Z,19.74
2023-05-04T08:08:11.193Z,19.74
2023-05-04T08:09:11.082Z,19.75
2023-05-04T08:10:10.111Z,19.75
2023-05-04T08:11:20.034Z,19.76
2023-05-04T08:12:11.145Z,19.76
2023-05-04T08:13:11.240Z,19.77
2023-05-04T08:14:10.186Z,19.78
2023-05-04T08:15:11.135Z,19.78
2023-05-04T08:16:10.108Z,19.79
2023-05-04T08:17:11.105Z,19.79
2023-05-04T08:18:10.088Z,19.79
2023-05-04T08:19:10.094Z,19.80
2023-05-04T08:20:10.127Z,19.80
2023-05-04T08:21:11.131Z,19.81
2023-05-04T08:22:11.145Z,19.81
2023-05-04T08:23:11.200Z,19.81
2023-05-04T08:24:10.256Z,19.83
2023-05-04T08:25:11.336Z,19.82
2023-05-04T08:26:11.389Z,19.83
2023-05-04T08:27:11.605Z,19.83
2023-05-04T08:28:11.502Z,19.84
2023-05-04T08:29:11.582Z,19.85
2023-05-04T08:30:11.664Z,19.85
2023-05-04T08:31:11.749Z,19.85
2023-05-04T08:32:10.785Z,19.86
2023-05-04T08:33:11.874Z,19.86
2023-05-04T08:34:10.902Z,19.87
2023-05-04T08:35:12.005Z,19.86
2023-05-04T08:36:11.014Z,19.87
2023-05-04T08:37:12.087Z,19.87
2023-05-04T08:38:11.186Z,19.87
2023-05-04T08:39:12.206Z,19.87
2023-05-04T08:40:12.278Z,19.88
2023-05-04T08:41:12.376Z,19.89
2023-05-04T08:42:11.722Z,19.89
2023-05-04T08:43:11.454Z,19.89
2023-05-04T08:44:12.536Z,19.89
2023-05-04T08:45:12.580Z,19.90
2023-05-04T08:46:12.715Z,19.90
2023-05-04T08:47:12.701Z,19.91
2023-05-04T08:48:12.758Z,19.91
2023-05-04T08:49:11.820Z,19.91
2023-05-04T08:50:12.906Z,19.91
2023-05-04T08:51:11.943Z,19.92
2023-05-04T08:52:13.033Z,19.87
2023-05-04T08:53:13.072Z,19.86
2023-05-04T08:54:12.139Z,19.85
2023-05-04T08:55:13.171Z,19.85
2023-05-04T08:56:13.208Z,19.87
2023-05-04T08:57:13.717Z,19.88
2023-05-04T08:58:12.368Z,19.90
2023-05-04T08:59:13.373Z,19.91
2023-05-04T09:00:13.439Z,19.92
2023-05-04T09:01:12.645Z,19.92
2023-05-04T09:02:13.753Z,19.93
2023-05-04T09:03:13.700Z,19.94
2023-05-04T09:04:13.709Z,19.93
2023-05-04T09:05:13.713Z,19.94
2023-05-04T09:06:13.773Z,19.94
2023-05-04T09:07:13.817Z,19.95
2023-05-04T09:08:12.874Z,19.95
2023-05-04T09:09:13.932Z,19.95
2023-05-04T09:10:13.978Z,19.96
2023-05-04T09:11:14.036Z,19.96
2023-05-04T09:12:14.084Z,19.97
2023-05-04T09:13:13.188Z,19.92
2023-05-04T09:14:14.189Z,19.91
2023-05-04T09:15:14.266Z,19.89
2023-05-04T09:16:14.875Z,19.88
2023-05-04T09:17:14.403Z,19.88
2023-05-04T09:18:14.615Z,19.87
2023-05-04T09:19:13.495Z,19.86
2023-05-04T09:20:14.558Z,19.86
2023-05-04T09:21:14.658Z,19.85
2023-05-04T09:22:14.698Z,19.86
2023-05-04T09:23:14.793Z,19.86
2023-05-04T09:24:14.806Z,19.84
2023-05-04T09:25:13.869Z,19.85
2023-05-04T09:26:14.942Z,19.83
2023-05-04T09:27:14.003Z,19.83
2023-05-04T09:28:15.072Z,19.83
2023-05-04T09:29:15.168Z,19.83
2023-05-04T09:30:15.221Z,19.82
2023-05-04T09:31:15.302Z,19.82
2023-05-04T09:32:15.388Z,19.82
2023-05-04T09:33:15.418Z,19.82
2023-05-04T09:34:15.549Z,19.81
2023-05-04T09:35:29.309Z,19.81
2023-05-04T09:36:15.483Z,19.81
2023-05-04T09:37:15.493Z,19.80
2023-05-04T09:38:15.476Z,19.80
2023-05-04T09:39:15.481Z,19.80
2023-05-04T09:40:14.453Z,19.80
2023-05-04T09:41:15.448Z,19.80
2023-05-04T09:42:14.438Z,19.80
2023-05-04T09:43:14.446Z,19.80
2023-05-04T09:44:15.438Z,19.80
2023-05-04T09:45:15.457Z,19.79
2023-05-04T09:46:14.458Z,19.79
2023-05-04T09:47:16.341Z,19.80
2023-05-04T09:48:14.416Z,19.79
2023-05-04T09:49:15.531Z,19.79
2023-05-04T09:50:16.839Z,19.80
2023-05-04T09:51:14.386Z,19.79
2023-05-04T09:52:15.719Z,19.79
2023-05-04T09:53:15.359Z,19.79
2023-05-04T09:54:15.369Z,19.79
2023-05-04T09:55:14.352Z,19.79
2023-05-04T09:56:14.362Z,19.79
2023-05-04T09:57:15.360Z,19.80
2023-05-04T09:58:14.333Z,19.80
2023-05-04T09:59:15.326Z,19.81
2023-05-04T10:00:15.320Z,19.80
2023-05-04T10:01:15.318Z,19.79
2023-05-04T10:02:22.792Z,19.79
2023-05-04T10:03:15.325Z,19.79
2023-05-04T10:04:15.289Z,19.79
2023-05-04T10:05:15.306Z,19.79
2023-05-04T10:06:15.427Z,19.79
2023-05-04T10:07:15.272Z,19.79
2023-05-04T10:08:14.255Z,19.79
2023-05-04T10:09:14.258Z,19.79
2023-05-04T10:10:15.244Z,19.79
2023-05-04T10:11:15.241Z,19.79
2023-05-04T10:12:15.234Z,19.80
2023-05-04T10:13:15.235Z,19.80
2023-05-04T10:14:14.213Z,19.80
2023-05-04T10:15:15.229Z,19.79
2023-05-04T10:16:15.238Z,19.79
2023-05-04T10:17:14.206Z,19.79
2023-05-04T10:18:15.186Z,19.79
2023-05-04T10:19:15.178Z,19.79
2023-05-04T10:20:14.187Z,19.79
2023-05-04T10:21:14.195Z,19.79
2023-05-04T10:22:15.178Z,19.79
2023-05-04T10:23:14.170Z,19.78
2023-05-04T10:24:15.156Z,19.78
2023-05-04T10:25:14.206Z,19.78
2023-05-04T10:26:14.245Z,19.78
2023-05-04T10:27:15.319Z,19.78
2023-05-04T10:28:14.353Z,19.78
2023-05-04T10:29:15.400Z,19.77
2023-05-04T10:30:14.452Z,19.77
2023-05-04T10:31:14.626Z,19.77
2023-05-04T10:32:14.568Z,19.78
2023-05-04T10:33:14.618Z,19.77
2023-05-04T10:34:15.644Z,19.77
2023-05-04T10:35:14.719Z,19.77
2023-05-04T10:36:14.749Z,19.77
2023-05-04T10:37:15.830Z,19.76
2023-05-04T10:38:15.922Z,19.76
2023-05-04T10:39:15.987Z,19.77
2023-05-04T10:40:14.999Z,19.77
2023-05-04T10:41:15.067Z,19.77
2023-05-04T10:42:16.244Z,19.76
2023-05-04T10:43:15.170Z,19.77
2023-05-04T10:44:15.199Z,19.76
2023-05-04T10:45:16.281Z,19.77
2023-05-04T10:46:16.308Z,19.77
2023-05-04T10:47:16.744Z,19.77
2023-05-04T10:48:16.328Z,19.77
2023-05-04T10:49:16.382Z,19.77
2023-05-04T10:50:15.510Z,19.76
2023-05-04T10:51:16.458Z,19.77
2023-05-04T10:52:15.481Z,19.77
2023-05-04T10:53:16.513Z,19.77
2023-05-04T10:54:15.558Z,19.77
2023-05-04T10:55:16.591Z,19.77
2023-05-04T10:56:16.618Z,19.77
2023-05-04T10:57:15.747Z,19.77
2023-05-04T10:58:16.784Z,19.77
2023-05-04T10:59:16.733Z,19.77
2023-05-04T11:00:16.797Z,19.76
2023-05-04T11:01:15.877Z,19.77
2023-05-04T11:02:16.899Z,19.77
2023-05-04T11:03:16.004Z,19.77
2023-05-04T11:04:16.976Z,19.77
2023-05-04T11:05:16.043Z,19.78
2023-05-04T11:06:17.069Z,19.77
2023-05-04T11:07:17.117Z,19.78
2023-05-04T11:08:17.151Z,19.78
2023-05-04T11:09:17.307Z,19.78
2023-05-04T11:10:16.261Z,19.79
2023-05-04T11:11:16.337Z,19.79
2023-05-04T11:12:17.409Z,19.79
2023-05-04T11:13:17.620Z,19.78
2023-05-04T11:14:17.466Z,19.78
2023-05-04T11:15:17.558Z,19.79
2023-05-04T11:16:17.624Z,19.79
2023-05-04T11:18:17.926Z,19.79
2023-05-04T11:19:16.643Z,19.79
2023-05-04T11:20:17.731Z,19.80
2023-05-04T11:21:16.816Z,19.80
2023-05-04T11:22:17.973Z,19.80
2023-05-04T11:23:16.958Z,19.80
2023-05-04T11:24:16.973Z,19.80
2023-05-04T11:25:18.154Z,19.81
2023-05-04T11:26:17.078Z,19.81
2023-05-04T11:27:17.110Z,19.81
2023-05-04T11:28:17.264Z,19.81
2023-05-04T11:29:17.227Z,19.82
2023-05-04T11:30:18.335Z,19.82
2023-05-04T11:31:17.431Z,19.81
2023-05-04T11:32:18.506Z,19.82
2023-05-04T11:33:17.539Z,19.83
2023-05-04T11:34:17.518Z,19.83
2023-05-04T11:35:18.596Z,19.83
2023-05-04T11:36:17.722Z,19.83
2023-05-04T11:37:17.772Z,19.84
2023-05-04T11:38:19.395Z,19.83
2023-05-04T11:39:17.841Z,19.83
2023-05-04T11:40:18.918Z,19.84
2023-05-04T11:41:19.098Z,19.85
2023-05-04T11:42:18.101Z,19.85
2023-05-04T11:43:19.129Z,19.85
2023-05-04T11:44:18.192Z,19.85
2023-05-04T11:45:18.257Z,19.86
2023-05-04T11:46:18.362Z,19.86
2023-05-04T11:47:18.321Z,19.86
2023-05-04T11:48:19.443Z,19.86
2023-05-04T11:49:18.539Z,19.86
2023-05-04T11:50:19.524Z,19.86
2023-05-04T11:51:19.552Z,19.86
2023-05-04T11:52:19.671Z,19.86
2023-05-04T11:53:18.750Z,19.87
2023-05-04T11:54:19.816Z,19.86
2023-05-04T11:55:18.791Z,19.87
2023-05-04T11:56:19.892Z,19.87
2023-05-04T11:57:19.070Z,19.88
2023-05-04T11:58:20.095Z,19.88
2023-05-04T11:59:19.099Z,19.88
2023-05-04T12:00:20.161Z,19.88
2023-05-04T12:01:20.233Z,19.87
2023-05-04T12:02:20.277Z,19.88
2023-05-04T12:03:19.413Z,19.88
2023-05-04T12:04:19.361Z,19.88
2023-05-04T12:05:20.440Z,19.88
2023-05-04T12:06:19.551Z,19.88
2023-05-04T12:07:19.551Z,19.89
2023-05-04T12:08:20.676Z,19.88
2023-05-04T12:09:19.717Z,19.86
2023-05-04T12:10:20.698Z,19.85
2023-05-04T12:11:19.762Z,19.86
2023-05-04T12:12:19.917Z,19.87
2023-05-04T12:13:20.042Z,19.88
2023-05-04T12:14:20.963Z,19.88
2023-05-04T12:15:20.053Z,19.88
2023-05-04T12:16:20.149Z,19.89
2023-05-04T12:17:20.120Z,19.89
2023-05-04T12:18:20.159Z,19.88
2023-05-04T12:19:20.278Z,19.89
2023-05-04T12:20:20.365Z,19.90
2023-05-04T12:21:20.376Z,19.89
2023-05-04T12:22:21.374Z,19.89
2023-05-04T12:23:20.508Z,19.90
2023-05-04T12:24:21.517Z,19.89
2023-05-04T12:25:21.569Z,19.89
2023-05-04T12:26:21.644Z,19.89
2023-05-04T12:27:21.746Z,19.89
2023-05-04T12:28:20.829Z,19.90
2023-05-04T12:29:20.832Z,19.89
2023-05-04T12:30:21.949Z,19.90
2023-05-04T12:31:21.630Z,19.90
2023-05-04T12:32:20.971Z,19.91
2023-05-04T12:33:22.142Z,19.90
2023-05-04T12:34:22.206Z,19.90
2023-05-04T12:35:21.188Z,19.90
2023-05-04T12:36:21.262Z,19.90
2023-05-04T12:37:22.622Z,19.91
2023-05-04T12:38:21.514Z,19.91
2023-05-04T12:39:21.600Z,19.91
2023-05-04T12:41:22.599Z,19.91
2023-05-04T12:42:21.610Z,19.91
2023-05-04T12:43:21.548Z,19.91
2023-05-04T12:44:21.610Z,19.90
2023-05-04T12:45:21.519Z,19.90
2023-05-04T12:46:21.624Z,19.90
2023-05-04T12:47:21.481Z,19.91
2023-05-04T12:48:22.481Z,19.91
2023-05-04T12:49:24.534Z,19.91
2023-05-04T12:50:21.477Z,19.90
2023-05-04T12:51:22.461Z,19.90
2023-05-04T12:52:21.528Z,19.90
2023-05-04T12:53:21.580Z,19.91
2023-05-04T12:54:21.443Z,19.90
2023-05-04T12:55:22.814Z,19.91
2023-05-04T12:56:21.444Z,19.90
2023-05-04T12:57:22.426Z,19.90
2023-05-04T12:58:22.396Z,19.90
2023-05-04T12:59:22.385Z,19.91
2023-05-04T13:00:21.401Z,19.91
2023-05-04T13:01:22.503Z,19.91
2023-05-04T13:02:21.498Z,19.91
2023-05-04T13:03:21.584Z,19.91
2023-05-04T13:04:21.364Z,19.91
2023-05-04T13:05:22.435Z,19.91
2023-05-04T13:06:21.344Z,19.91
2023-05-04T13:07:22.402Z,19.91
2023-05-04T13:08:21.373Z,19.91
2023-05-04T13:09:21.349Z,19.91
2023-05-04T13:10:21.340Z,19.91
2023-05-04T13:11:21.364Z,19.91
2023-05-04T13:12:21.417Z,19.92
2023-05-04T13:13:22.472Z,19.92
2023-05-04T13:14:21.352Z,19.91
2023-05-04T13:15:21.329Z,19.91
2023-05-04T13:16:21.395Z,19.91
2023-05-04T13:17:22.421Z,19.92
2023-05-04T13:18:21.283Z,19.91
2023-05-04T13:19:21.279Z,19.91
2023-05-04T13:20:21.301Z,19.92
2023-05-04T13:21:22.277Z,19.92
2023-05-04T13:22:21.277Z,19.92
2023-05-04T13:23:22.287Z,19.92
2023-05-04T13:24:21.285Z,19.92
2023-05-04T13:25:21.272Z,19.92
2023-05-04T13:26:22.319Z,19.92
2023-05-04T13:27:22.425Z,19.92
2023-05-04T13:28:21.494Z,19.93
2023-05-04T13:29:21.482Z,19.92
2023-05-04T13:30:22.646Z,19.93
2023-05-04T13:31:21.621Z,19.93
2023-05-04T13:32:21.657Z,19.93
2023-05-04T13:33:29.577Z,19.92
2023-05-04T13:34:22.732Z,19.92
2023-05-04T13:35:22.677Z,19.92
2023-05-04T13:36:21.722Z,19.92
2023-05-04T13:37:21.688Z,19.92
2023-05-04T13:38:22.673Z,19.93
2023-05-04T13:39:22.667Z,19.93
2023-05-04T13:40:21.635Z,19.92
2023-05-04T13:41:21.652Z,19.93
2023-05-04T13:42:21.610Z,19.94
2023-05-04T13:43:21.605Z,19.94
2023-05-04T13:44:22.646Z,19.93
2023-05-04T13:45:22.664Z,19.93
2023-05-04T13:46:21.710Z,19.93
2023-05-04T13:47:22.651Z,19.94
2023-05-04T13:48:21.564Z,19.94
2023-05-04T13:49:21.598Z,19.94
2023-05-04T13:50:21.633Z,19.94
2023-05-04T13:51:21.541Z,19.94
2023-05-04T13:52:21.587Z,19.94
2023-05-04T13:53:21.602Z,19.94
2023-05-04T13:54:21.615Z,19.94
2023-05-04T13:55:21.528Z,19.94
2023-05-04T13:56:22.617Z,19.94
2023-05-04T13:57:21.598Z,19.94
2023-05-04T13:58:22.511Z,19.94
2023-05-04T13:59:22.592Z,19.95
2023-05-04T14:00:21.561Z,19.94
2023-05-04T14:01:21.678Z,19.95
2023-05-04T14:02:22.757Z,19.95
2023-05-04T14:03:21.675Z,19.95
2023-05-04T14:04:22.680Z,19.95
2023-05-04T14:05:22.890Z,19.96
2023-05-04T14:06:22.767Z,19.96
2023-05-04T14:07:21.832Z,19.96
2023-05-04T14:08:21.983Z,19.96
2023-05-04T14:09:22.004Z,19.96
2023-05-04T14:10:22.066Z,19.96
2023-05-04T14:11:22.113Z,19.96
2023-05-04T14:12:22.170Z,19.98
2023-05-04T14:13:22.213Z,20.00
2023-05-04T14:14:22.209Z,20.04
2023-05-04T14:15:23.311Z,20.08
2023-05-04T14:16:23.342Z,20.08
2023-05-04T14:17:22.364Z,20.11
2023-05-04T14:18:22.496Z,20.13
2023-05-04T14:19:23.389Z,20.16
2023-05-04T14:20:22.337Z,20.13
2023-05-04T14:21:22.413Z,20.15
2023-05-04T14:22:23.447Z,20.16
2023-05-04T14:23:22.529Z,20.18
2023-05-04T14:24:22.492Z,20.18
2023-05-04T14:25:22.555Z,20.18
2023-05-04T14:26:22.519Z,20.19
2023-05-04T14:27:23.601Z,20.17
2023-05-04T14:28:23.659Z,20.17
2023-05-04T14:29:23.669Z,20.17
2023-05-04T14:30:22.634Z,20.17
2023-05-04T14:31:22.789Z,20.16
2023-05-04T14:32:23.773Z,20.16
2023-05-04T14:33:22.798Z,20.15
2023-05-04T14:34:22.831Z,20.15
2023-05-04T14:35:22.799Z,20.14
2023-05-04T14:36:22.862Z,20.14
2023-05-04T14:37:23.836Z,20.14
2023-05-04T14:38:23.904Z,20.15
2023-05-04T14:39:23.926Z,20.15
2023-05-04T14:40:22.872Z,20.15
2023-05-04T14:41:23.872Z,20.15
2023-05-04T14:42:22.964Z,20.15
2023-05-04T14:43:23.940Z,20.14
2023-05-04T14:44:24.027Z,20.16
2023-05-04T14:45:23.035Z,20.15
2023-05-04T14:46:23.097Z,20.15
2023-05-04T14:47:23.085Z,20.15
2023-05-04T14:48:23.025Z,20.16
2023-05-04T14:49:35.880Z,20.16
2023-05-04T14:50:24.028Z,20.16
2023-05-04T14:51:23.054Z,20.17
2023-05-04T14:52:23.018Z,20.18
2023-05-04T14:53:24.071Z,20.18
2023-05-04T14:54:24.092Z,20.17
2023-05-04T14:55:23.108Z,20.18
2023-05-04T14:56:23.078Z,20.18
2023-05-04T14:57:23.054Z,20.18
2023-05-04T14:58:23.072Z,20.18
2023-05-04T14:59:22.969Z,20.18
2023-05-04T15:00:24.090Z,20.17
2023-05-04T15:01:23.053Z,20.18
2023-05-04T15:02:23.013Z,20.18
2023-05-04T15:03:23.070Z,20.18
2023-05-04T15:04:24.100Z,20.18
2023-05-04T15:05:23.937Z,20.19
2023-05-04T15:06:22.925Z,20.19
2023-05-04T15:07:23.933Z,20.19
2023-05-04T15:08:23.902Z,20.18
2023-05-04T15:09:24.070Z,20.18
2023-05-04T15:10:22.963Z,20.19
2023-05-04T15:11:23.963Z,20.19
2023-05-04T15:12:23.058Z,20.20
2023-05-04T15:13:23.007Z,20.20
2023-05-04T15:14:24.035Z,20.20
2023-05-04T15:15:23.093Z,20.20
2023-05-04T15:16:23.124Z,20.20
2023-05-04T15:17:24.137Z,20.20
2023-05-04T15:18:24.132Z,20.20
2023-05-04T15:19:24.108Z,20.20
2023-05-04T15:20:23.165Z,20.20
2023-05-04T15:21:23.123Z,20.20
2023-05-04T15:22:24.141Z,20.20
2023-05-04T15:23:24.204Z,20.21
2023-05-04T15:24:24.164Z,20.22
2023-05-04T15:25:24.477Z,20.21
2023-05-04T15:26:23.192Z,20.22
2023-05-04T15:27:24.311Z,20.22
2023-05-04T15:28:23.297Z,20.22
2023-05-04T15:29:23.311Z,20.22
